SCGF weather

Golfo Azul Airport
Futrono, Los Ríos Region, Chile

Public forecast

Using degrees Celsius for public forecast. Weather courtesy of forecast.io.

METAR (pilot weather report)

Report is more than 6 hours old.

Closest report is Cañal Bajo Carlos - Hott Siebert Airport, 45.4 nm (84.1 km) SW. Retrieved 2019/03/25 21:00 UTC (7 hours ago):

SCJO 252100Z 20010KT CAVOK 20/11 Q1018

TAF (pilot weather forecast)

Forecast is more than 12 hours old.

Closest forecast is Cañal Bajo Carlos - Hott Siebert Airport, 45.4 nm (84.1 km) SW. Retrieved 2019/03/25 12:33 UTC (16 hours ago):

TAF SCJO 251015Z 2512/2524 20005KT 9999 OVC010 TN11/2512Z TX21/2520Z BECMG 2513/2515 SCT020 BECMG 2517/2519 18010KT CAVOK